Time;durP1;ratioP1;P1;durP2;ratioP2;P2;SDS_P1;SDS_P2;PMS_P1;PMS_P2;Temp;Humidity;BMP_temperature;BMP_pressure;BME280_temperature;BME280_humidity;BME280_pressure;Samples;Min_cycle;Max_cycle;Signal;HPM_P1;HPM_P2
2023/12/01 00:02:02;;;;;;;85.03;40.45;;;;;;;10.88;79.91;100430.84;5065266;28;20504;-77
2023/12/01 00:04:27;;;;;;;68.60;33.63;;;;;;;10.82;80.42;100430.50;5048823;28;20082;-78
2023/12/01 00:06:53;;;;;;;69.57;39.28;;;;;;;10.83;80.91;100427.66;5064234;28;20558;-77
2023/12/01 00:09:18;;;;;;;59.50;35.72;;;;;;;10.76;80.85;100415.72;5048245;28;20125;-77
2023/12/01 00:11:44;;;;;;;69.15;37.97;;;;;;;10.70;81.13;100410.88;5048133;28;20033;-77
2023/12/01 00:14:10;;;;;;;74.38;39.25;;;;;;;10.70;80.69;100413.56;5047909;28;20033;-77
2023/12/01 00:16:35;;;;;;;66.57;35.15;;;;;;;10.65;80.83;100412.25;5051936;28;20024;-77
2023/12/01 00:19:01;;;;;;;72.40;38.92;;;;;;;10.47;80.52;100390.47;5051841;28;20424;-77
2023/12/01 00:21:26;;;;;;;53.13;31.35;;;;;;;10.51;80.82;100405.38;5052014;28;20419;-76
2023/12/01 00:23:52;;;;;;;52.83;30.33;;;;;;;10.40;81.21;100397.34;5051480;28;20060;-76
2023/12/01 00:26:17;;;;;;;39.63;25.77;;;;;;;10.36;81.13;100418.28;5051727;28;20092;-76
2023/12/01 00:28:43;;;;;;;55.75;30.85;;;;;;;10.27;81.49;100405.56;5051694;28;20025;-77
2023/12/01 00:31:08;;;;;;;64.53;36.22;;;;;;;10.21;81.72;100407.94;5052053;28;20025;-77
2023/12/01 00:33:34;;;;;;;76.88;37.38;;;;;;;10.21;81.93;100408.78;5051783;28;20025;-77
2023/12/01 00:36:00;;;;;;;60.58;33.33;;;;;;;10.16;82.39;100405.63;5053027;28;20089;-77
2023/12/01 00:38:26;;;;;;;48.97;28.10;;;;;;;10.14;82.77;100404.06;5058159;28;20033;-77
2023/12/01 00:40:52;;;;;;;52.00;27.98;;;;;;;10.14;82.90;100402.22;5055585;28;20036;-77
2023/12/01 00:43:18;;;;;;;56.75;31.05;;;;;;;10.14;82.80;100404.06;5051619;28;20033;-77
2023/12/01 00:45:43;;;;;;;45.50;29.38;;;;;;;10.14;83.09;100396.00;5051257;28;20039;-77
2023/12/01 00:48:09;;;;;;;55.45;32.35;;;;;;;10.08;83.21;100396.47;5051481;28;20021;-76
2023/12/01 00:50:34;;;;;;;59.00;33.10;;;;;;;10.10;83.73;100405.25;5051026;28;20044;-77
2023/12/01 00:53:00;;;;;;;50.72;30.88;;;;;;;9.97;83.02;100383.91;5051277;28;20032;-77
2023/12/01 00:55:25;;;;;;;47.13;30.52;;;;;;;10.00;83.40;100398.94;5050996;28;20028;-76
2023/12/01 00:57:53;;;;;;;51.78;30.70;;;;;;;9.96;83.75;100384.06;5051351;28;20473;-77
2023/12/01 01:00:20;;;;;;;52.30;30.50;;;;;;;9.97;84.13;100388.47;5051102;28;20029;-76
2023/12/01 01:02:46;;;;;;;63.05;32.10;;;;;;;9.87;84.77;100369.56;5050942;28;20029;-77
2023/12/01 01:05:11;;;;;;;55.95;30.42;;;;;;;9.98;85.17;100376.72;5051117;28;20477;-77
2023/12/01 01:07:37;;;;;;;49.33;30.80;;;;;;;9.94;84.93;100361.84;5050681;28;20546;-76
2023/12/01 01:10:02;;;;;;;44.55;28.92;;;;;;;10.00;84.87;100372.06;5050829;28;20086;-76
2023/12/01 01:12:28;;;;;;;41.10;25.55;;;;;;;10.03;84.88;100379.88;5049593;28;20427;-76
2023/12/01 01:14:54;;;;;;;35.15;26.05;;;;;;;10.01;84.74;100374.63;5050898;28;20036;-77
2023/12/01 01:17:19;;;;;;;40.40;24.52;;;;;;;9.99;84.47;100362.31;5050737;28;20071;-76
2023/12/01 01:19:45;;;;;;;39.90;24.20;;;;;;;10.00;84.59;100369.41;5051262;28;20041;-76
2023/12/01 01:22:10;;;;;;;41.63;24.65;;;;;;;9.97;84.38;100361.59;5050792;28;20020;-77
2023/12/01 01:24:36;;;;;;;39.95;23.98;;;;;;;9.96;84.38;100359.88;5050649;28;20049;-77
2023/12/01 01:27:01;;;;;;;44.38;24.15;;;;;;;9.83;83.87;100334.03;5050278;28;20504;-78
2023/12/01 01:29:27;;;;;;;43.08;26.35;;;;;;;9.98;84.04;100364.13;5056579;28;20048;-77
2023/12/01 01:31:52;;;;;;;38.92;23.70;;;;;;;9.96;83.74;100359.88;5053917;28;20041;-77
2023/12/01 01:34:18;;;;;;;42.50;23.70;;;;;;;9.90;83.62;100360.38;5050270;28;20082;-77
2023/12/01 01:36:44;;;;;;;35.92;24.20;;;;;;;9.90;83.94;100360.38;5049276;28;20425;-76
2023/12/01 01:39:10;;;;;;;40.20;24.38;;;;;;;9.85;83.96;100350.88;5050047;28;20031;-76
2023/12/01 01:41:36;;;;;;;38.65;24.65;;;;;;;9.82;84.03;100359.16;5050563;28;20029;-76
2023/12/01 01:44:02;;;;;;;44.72;24.75;;;;;;;9.64;83.92;100338.34;5050194;28;20025;-77
2023/12/01 01:46:27;;;;;;;41.42;24.60;;;;;;;9.73;84.28;100368.00;5050096;28;20048;-77
2023/12/01 01:48:54;;;;;;;36.67;23.15;;;;;;;9.60;84.37;100328.84;5050355;28;20112;-77
2023/12/01 01:51:20;;;;;;;33.42;23.20;;;;;;;9.68;84.86;100343.34;5050102;28;20104;-77
2023/12/01 01:53:46;;;;;;;40.30;21.92;;;;;;;9.79;85.63;100348.69;5050071;28;20131;-77
2023/12/01 01:56:14;;;;;;;46.20;24.15;;;;;;;9.81;86.10;100351.25;5049891;28;20488;-76
2023/12/01 01:58:42;;;;;;;40.78;23.35;;;;;;;9.83;87.01;100352.81;5050139;28;20033;-77
2023/12/01 02:01:07;;;;;;;37.35;23.10;;;;;;;9.82;86.91;100345.75;5049828;28;20017;-76
2023/12/01 02:03:34;;;;;;;35.40;21.95;;;;;;;9.94;86.96;100351.91;5049663;28;20116;-77
2023/12/01 02:06:06;;;;;;;37.20;21.02;;;;;;;10.02;87.34;100345.94;5048412;28;20029;-76
2023/12/01 02:08:33;;;;;;;35.38;21.08;;;;;;;10.09;87.81;100344.44;5050188;28;20040;-77
2023/12/01 02:11:00;;;;;;;33.67;20.67;;;;;;;10.15;88.57;100335.91;5049976;28;20036;-77
2023/12/01 02:13:26;;;;;;;37.17;22.25;;;;;;;10.24;88.74;100327.06;5048713;28;20033;-77
2023/12/01 02:15:52;;;;;;;45.53;22.75;;;;;;;10.32;89.27;100316.50;5049496;28;20021;-76
2023/12/01 02:18:36;;;;;;;44.58;23.60;;;;;;;10.38;89.74;100324.03;5047347;28;20041;-78
2023/12/01 02:21:02;;;;;;;35.58;22.85;;;;;;;10.47;90.01;100315.19;5057044;28;20021;-77
2023/12/01 02:23:27;;;;;;;40.42;22.63;;;;;;;10.52;89.89;100325.56;5057883;28;20033;-76
2023/12/01 02:25:53;;;;;;;42.67;25.83;;;;;;;10.62;89.86;100321.94;5049628;28;20140;-77
2023/12/01 02:28:19;;;;;;;37.60;22.60;;;;;;;10.71;90.02;100317.59;5049410;28;20029;-76
2023/12/01 02:30:52;;;;;;;40.95;27.33;;;;;;;10.79;89.99;100321.31;5049255;28;20056;-77
2023/12/01 02:33:19;;;;;;;35.95;24.92;;;;;;;10.83;89.92;100309.31;5049044;28;20139;-77
2023/12/01 02:35:49;;;;;;;36.75;22.40;;;;;;;10.86;89.40;100303.66;5080524;28;20036;-75
2023/12/01 02:38:15;;;;;;;31.77;21.35;;;;;;;10.91;89.87;100296.06;5048121;28;20087;-77
2023/12/01 02:40:43;;;;;;;39.58;23.23;;;;;;;10.97;89.21;100301.88;5049314;28;20021;-76
2023/12/01 02:43:13;;;;;;;37.25;22.77;;;;;;;10.94;88.94;100284.16;5048864;28;20067;-76
2023/12/01 02:45:39;;;;;;;33.58;22.42;;;;;;;11.00;89.01;100283.63;5049226;28;20096;-77
2023/12/01 02:48:06;;;;;;;33.72;21.13;;;;;;;11.14;88.55;100301.22;5048845;28;20067;-77
2023/12/01 02:50:32;;;;;;;26.90;20.63;;;;;;;11.06;87.79;100279.53;5063243;28;20037;-75
2023/12/01 02:52:58;;;;;;;40.47;20.45;;;;;;;11.23;88.05;100295.00;5049158;28;20055;-76
2023/12/01 02:55:24;;;;;;;36.33;22.60;;;;;;;11.32;87.47;100302.25;5048817;28;20029;-77
2023/12/01 02:57:49;;;;;;;32.95;20.85;;;;;;;11.33;87.18;100301.28;5049142;28;20102;-76
2023/12/01 03:00:15;;;;;;;38.03;22.40;;;;;;;11.29;86.51;100298.00;5048689;28;20021;-76
2023/12/01 03:02:41;;;;;;;29.67;19.75;;;;;;;11.31;86.82;100297.88;5049226;28;20025;-77
2023/12/01 03:05:08;;;;;;;37.13;21.27;;;;;;;11.38;86.04;100299.88;5049021;28;20021;-77
2023/12/01 03:07:35;;;;;;;32.13;20.70;;;;;;;11.22;85.78;100266.41;5048999;28;20033;-77
2023/12/01 03:10:01;;;;;;;32.10;20.63;;;;;;;11.44;86.02;100295.78;5048894;28;20032;-78
2023/12/01 03:12:26;;;;;;;28.40;20.33;;;;;;;11.30;85.59;100263.88;5038727;28;20040;-77
2023/12/01 03:14:52;;;;;;;37.55;18.42;;;;;;;11.47;85.47;100276.66;5056738;28;20052;-77
2023/12/01 03:17:18;;;;;;;29.58;18.40;;;;;;;11.45;85.10;100278.63;5048945;28;20396;-77
2023/12/01 03:19:46;;;;;;;24.27;17.63;;;;;;;11.44;84.87;100276.91;5048879;28;20087;-77
2023/12/01 03:22:12;;;;;;;24.00;17.58;;;;;;;11.46;84.83;100275.81;5048608;28;20029;-77
2023/12/01 03:24:38;;;;;;;28.95;16.80;;;;;;;11.44;85.07;100269.69;5048550;28;20055;-77
2023/12/01 03:27:04;;;;;;;28.80;17.00;;;;;;;11.52;85.13;100274.41;5048483;28;20098;-77
2023/12/01 03:29:32;;;;;;;31.02;17.15;;;;;;;11.44;84.47;100260.75;5048538;28;20029;-77
2023/12/01 03:31:58;;;;;;;30.25;17.45;;;;;;;11.52;84.76;100263.63;5048538;28;20219;-77
2023/12/01 03:34:24;;;;;;;22.73;15.63;;;;;;;11.60;84.69;100265.59;5048610;28;20505;-77
2023/12/01 03:36:51;;;;;;;28.17;16.20;;;;;;;11.62;84.56;100267.16;5048330;28;20021;-76
2023/12/01 03:39:16;;;;;;;27.17;17.42;;;;;;;11.60;84.71;100261.06;5048429;28;20047;-76
2023/12/01 03:41:46;;;;;;;22.88;15.02;;;;;;;11.70;84.12;100271.91;5048092;28;20017;-77
2023/12/01 03:44:11;;;;;;;25.65;16.00;;;;;;;11.71;84.04;100276.31;5048413;28;20029;-77
2023/12/01 03:46:36;;;;;;;26.98;17.80;;;;;;;11.73;83.91;100277.88;5048463;28;20028;-77
2023/12/01 03:49:02;;;;;;;30.40;19.05;;;;;;;11.70;83.81;100267.38;5049803;28;20456;-77
2023/12/01 03:51:28;;;;;;;35.67;19.60;;;;;;;11.75;83.97;100267.78;5052537;28;20505;-77
2023/12/01 03:53:54;;;;;;;29.60;16.67;;;;;;;11.78;83.72;100254.03;5050938;28;20083;-77
2023/12/01 03:56:19;;;;;;;21.85;16.67;;;;;;;11.76;83.92;100245.25;5053025;28;20082;-76
2023/12/01 03:58:45;;;;;;;26.55;15.38;;;;;;;11.84;83.27;100248.06;5052065;28;20104;-77
2023/12/01 04:01:10;;;;;;;22.67;15.35;;;;;;;11.85;83.02;100244.41;5052474;28;20013;-76
2023/12/01 04:03:37;;;;;;;25.73;15.60;;;;;;;11.93;82.75;100240.97;5059822;28;20029;-77
2023/12/01 04:06:03;;;;;;;22.92;14.75;;;;;;;11.95;82.61;100237.16;5059775;28;20021;-78
2023/12/01 04:08:28;;;;;;;25.52;14.25;;;;;;;12.01;82.33;100243.81;5052198;28;20029;-76
2023/12/01 04:10:55;;;;;;;37.22;16.80;;;;;;;12.07;81.97;100237.00;5051927;28;20571;-77
2023/12/01 04:13:21;;;;;;;25.90;14.95;;;;;;;12.01;82.23;100222.25;5051727;28;20025;-75
2023/12/01 04:15:47;;;;;;;23.90;14.40;;;;;;;11.98;81.75;100212.63;5051655;28;20033;-77
2023/12/01 04:18:12;;;;;;;23.63;14.13;;;;;;;12.21;81.46;100256.28;5051839;28;20033;-78
2023/12/01 04:20:38;;;;;;;25.35;14.20;;;;;;;12.26;81.33;100236.97;5050089;28;20025;-77
2023/12/01 04:23:09;;;;;;;31.10;16.13;;;;;;;12.24;81.02;100233.56;5051828;28;20107;-77
2023/12/01 04:25:38;;;;;;;27.25;14.32;;;;;;;12.18;81.00;100217.97;5049021;28;20578;-76
2023/12/01 04:28:06;;;;;;;24.70;14.48;;;;;;;12.27;80.48;100222.47;5051940;28;20087;-76
2023/12/01 04:30:35;;;;;;;20.65;13.40;;;;;;;12.45;79.86;100236.91;5051923;28;20036;-78
2023/12/01 04:33:01;;;;;;;26.80;14.45;;;;;;;12.45;79.83;100242.31;5051240;28;20029;-76
2023/12/01 04:35:28;;;;;;;22.17;13.18;;;;;;;12.48;79.36;100237.47;5051752;28;20043;-77
2023/12/01 04:37:55;;;;;;;20.25;14.40;;;;;;;12.40;78.96;100229.28;5051454;28;20028;-77
2023/12/01 04:40:20;;;;;;;19.70;11.65;;;;;;;12.45;78.39;100229.69;5051179;28;20039;-76
2023/12/01 04:42:48;;;;;;;19.85;11.65;;;;;;;12.40;78.32;100212.25;5051611;28;20124;-76
2023/12/01 04:45:15;;;;;;;17.10;12.52;;;;;;;12.42;78.80;100226.41;5051512;28;20032;-76
2023/12/01 04:47:43;;;;;;;22.08;12.75;;;;;;;12.40;78.34;100233.81;5051917;28;20120;-77
2023/12/01 04:50:13;;;;;;;21.60;11.68;;;;;;;12.39;78.51;100235.66;5051847;28;20029;-76
2023/12/01 04:52:42;;;;;;;21.88;12.70;;;;;;;12.30;78.33;100227.59;5050988;28;20493;-77
2023/12/01 04:55:13;;;;;;;17.08;10.73;;;;;;;12.33;78.37;100232.69;5058793;28;20025;-77
2023/12/01 04:57:40;;;;;;;19.40;11.60;;;;;;;12.32;78.62;100233.69;5057910;28;20088;-76
2023/12/01 05:00:22;;;;;;;19.48;11.15;;;;;;;12.23;78.88;100215.69;5050021;28;20570;-78
2023/12/01 05:02:59;;;;;;;21.02;12.20;;;;;;;12.21;78.67;100207.75;5050728;28;20025;-77
2023/12/01 05:05:27;;;;;;;23.35;13.55;;;;;;;12.32;78.83;100231.84;5050743;28;20036;-77
2023/12/01 05:07:57;;;;;;;23.45;13.48;;;;;;;12.34;78.52;100234.41;5050924;28;20110;-76
2023/12/01 05:10:27;;;;;;;20.00;11.02;;;;;;;12.25;78.96;100214.56;5050610;28;20029;-77
2023/12/01 05:12:57;;;;;;;15.77;11.40;;;;;;;12.18;78.65;100221.50;5048300;28;20125;-77
2023/12/01 05:15:24;;;;;;;20.00;10.75;;;;;;;12.32;78.45;100231.00;5050429;28;20111;-78
2023/12/01 05:17:52;;;;;;;17.15;11.00;;;;;;;12.34;78.41;100239.78;5050490;28;20043;-77
2023/12/01 05:20:19;;;;;;;23.15;11.60;;;;;;;12.34;78.45;100240.66;5051100;28;20450;-77
2023/12/01 05:22:48;;;;;;;16.67;9.90;;;;;;;12.37;78.18;100242.19;5050953;28;20086;-76
2023/12/01 05:25:15;;;;;;;20.40;11.70;;;;;;;12.41;78.11;100247.16;5050223;28;20049;-77
2023/12/01 05:27:42;;;;;;;22.00;12.18;;;;;;;12.43;78.31;100233.53;5050611;28;20075;-77
2023/12/01 05:30:08;;;;;;;22.73;12.32;;;;;;;12.47;77.83;100227.72;5050414;28;20025;-76
2023/12/01 05:32:34;;;;;;;17.38;10.55;;;;;;;12.48;78.29;100231.22;5050344;28;20169;-77
2023/12/01 05:34:59;;;;;;;21.63;11.27;;;;;;;12.41;77.37;100232.81;5050521;28;20116;-76
2023/12/01 05:37:25;;;;;;;16.98;11.15;;;;;;;12.31;77.75;100216.66;5050395;28;20025;-77
2023/12/01 05:39:50;;;;;;;19.77;11.98;;;;;;;12.48;77.81;100240.16;5050959;28;20029;-77
2023/12/01 05:42:16;;;;;;;30.45;15.00;;;;;;;12.42;77.43;100229.13;5050056;28;20035;-77
2023/12/01 05:44:41;;;;;;;35.22;14.48;;;;;;;12.56;76.96;100225.97;5051756;28;20087;-77
2023/12/01 05:47:07;;;;;;;27.55;13.95;;;;;;;12.60;77.02;100224.66;5060275;28;20029;-78
2023/12/01 05:49:32;;;;;;;23.92;13.70;;;;;;;12.64;77.10;100236.88;5057909;28;20021;-76
2023/12/01 05:51:58;;;;;;;32.40;13.73;;;;;;;12.62;76.98;100228.06;5050308;28;20504;-77
2023/12/01 05:54:24;;;;;;;23.85;13.68;;;;;;;12.75;76.40;100244.75;5049927;28;20025;-77
2023/12/01 05:56:49;;;;;;;25.25;12.75;;;;;;;12.81;76.42;100244.16;5049713;28;20025;-77
2023/12/01 05:59:15;;;;;;;23.25;11.52;;;;;;;12.74;76.19;100220.63;5047426;28;20048;-76
2023/12/01 06:01:40;;;;;;;32.65;13.63;;;;;;;12.93;75.84;100237.59;5049259;28;20025;-76
2023/12/01 06:04:05;;;;;;;20.58;11.48;;;;;;;12.99;75.53;100241.56;5049750;28;20037;-78
2023/12/01 06:06:31;;;;;;;29.65;11.95;;;;;;;13.04;75.02;100248.19;5049640;28;20036;-76
2023/12/01 06:08:56;;;;;;;18.60;11.68;;;;;;;13.00;74.87;100232.44;5049468;28;20183;-77
2023/12/01 06:11:22;;;;;;;24.80;11.50;;;;;;;13.07;74.88;100239.81;5049543;28;20035;-77
2023/12/01 06:13:47;;;;;;;26.48;12.38;;;;;;;13.11;74.26;100239.53;5049262;28;20033;-76
2023/12/01 06:16:13;;;;;;;26.05;11.65;;;;;;;13.13;73.92;100249.16;5049387;28;20025;-78
2023/12/01 06:18:39;;;;;;;20.80;10.25;;;;;;;13.18;73.81;100232.53;5049196;28;20033;-77
2023/12/01 06:21:05;;;;;;;18.27;12.25;;;;;;;13.21;73.64;100234.94;5049310;28;20017;-78
2023/12/01 06:23:32;;;;;;;30.60;11.98;;;;;;;13.30;73.48;100234.03;5049246;28;20033;-78
2023/12/01 06:25:57;;;;;;;23.77;11.30;;;;;;;13.29;73.04;100222.38;5049046;28;20080;-77
2023/12/01 06:28:26;;;;;;;27.73;12.13;;;;;;;13.42;72.75;100230.94;5049616;28;20060;-77
2023/12/01 06:30:51;;;;;;;27.92;11.10;;;;;;;13.44;72.69;100233.50;5049027;28;20025;-77
2023/12/01 06:33:18;;;;;;;40.63;14.55;;;;;;;13.47;72.47;100230.50;5049381;28;20028;-76
2023/12/01 06:35:44;;;;;;;29.27;12.30;;;;;;;13.51;72.08;100227.34;5049095;28;20041;-76
2023/12/01 06:38:10;;;;;;;41.80;11.20;;;;;;;13.56;72.02;100233.13;5056073;28;20130;-77
2023/12/01 06:40:36;;;;;;;23.13;10.60;;;;;;;13.53;71.37;100225.31;5058857;28;20033;-76
2023/12/01 06:43:09;;;;;;;19.90;9.10;;;;;;;13.63;71.46;100231.50;5049022;28;20040;-77
2023/12/01 06:45:36;;;;;;;23.17;11.82;;;;;;;13.58;70.63;100214.03;5049300;28;20101;-77
2023/12/01 06:48:01;;;;;;;26.10;10.70;;;;;;;13.70;70.86;100226.31;5049114;28;20025;-77
2023/12/01 06:50:27;;;;;;;21.63;9.52;;;;;;;13.72;70.47;100228.88;5049017;28;20025;-77
2023/12/01 06:52:53;;;;;;;41.83;12.00;;;;;;;13.66;70.49;100206.03;5048843;28;20452;-77
2023/12/01 06:55:19;;;;;;;24.02;10.02;;;;;;;13.88;70.12;100229.84;5048647;28;20039;-76
2023/12/01 06:57:46;;;;;;;25.77;10.27;;;;;;;13.49;69.69;100156.38;5048753;28;20033;-77
2023/12/01 07:00:29;;;;;;;34.63;13.70;;;;;;;13.87;69.74;100211.09;5048783;28;20441;-77
2023/12/01 07:03:00;;;;;;;40.05;10.95;;;;;;;14.06;69.80;100233.44;5047469;28;20064;-77
2023/12/01 07:05:27;;;;;;;18.50;8.98;;;;;;;14.12;69.56;100230.09;5048624;28;20116;-77
2023/12/01 07:07:53;;;;;;;21.42;9.40;;;;;;;14.14;69.36;100216.41;5048504;28;20025;-77
2023/12/01 07:10:19;;;;;;;24.45;10.07;;;;;;;14.23;68.76;100217.31;5048390;28;20037;-77
2023/12/01 07:12:46;;;;;;;23.10;9.35;;;;;;;14.32;68.39;100216.34;5048496;28;20554;-76
2023/12/01 07:15:12;;;;;;;26.55;10.68;;;;;;;14.40;68.33;100213.75;5047484;28;20397;-77
2023/12/01 07:17:38;;;;;;;18.08;8.35;;;;;;;14.48;68.15;100216.50;5048378;28;20028;-77
2023/12/01 07:20:13;;;;;;;33.10;15.57;;;;;;;14.56;67.35;100211.13;5048453;28;20029;-76
2023/12/01 07:22:40;;;;;;;31.88;12.88;;;;;;;14.56;67.00;100203.00;5048333;28;20037;-77
2023/12/01 07:25:10;;;;;;;16.02;8.75;;;;;;;14.58;66.47;100211.84;5047967;28;20539;-76
2023/12/01 07:27:38;;;;;;;21.23;9.05;;;;;;;14.59;66.32;100213.50;5048720;28;20470;-77
2023/12/01 07:30:05;;;;;;;32.80;9.85;;;;;;;14.58;66.32;100209.13;5053522;28;20400;-76
2023/12/01 07:32:30;;;;;;;28.77;9.57;;;;;;;14.63;66.51;100212.19;5051509;28;20040;-76
2023/12/01 07:34:56;;;;;;;19.00;8.77;;;;;;;14.72;65.97;100219.34;5048045;28;20029;-77
2023/12/01 07:37:21;;;;;;;18.08;9.02;;;;;;;14.73;65.59;100215.63;5048071;28;20494;-77
2023/12/01 07:39:47;;;;;;;16.00;7.80;;;;;;;14.78;65.54;100223.25;5048448;28;20060;-78
2023/12/01 07:42:12;;;;;;;15.73;7.45;;;;;;;14.82;65.09;100219.22;5048268;28;20108;-76
2023/12/01 07:44:38;;;;;;;28.48;7.43;;;;;;;14.85;65.03;100208.06;5048179;28;20533;-76
2023/12/01 07:47:07;;;;;;;18.08;8.57;;;;;;;14.82;64.88;100203.84;5047860;28;20020;-77
2023/12/01 07:49:33;;;;;;;18.55;10.80;;;;;;;14.81;64.92;100210.25;5047905;28;20028;-77
2023/12/01 07:51:58;;;;;;;18.48;8.63;;;;;;;14.82;65.17;100211.97;5048197;28;20039;-77
2023/12/01 07:54:24;;;;;;;21.90;8.15;;;;;;;14.89;65.13;100210.28;5047669;28;20400;-76
2023/12/01 07:56:49;;;;;;;20.02;7.65;;;;;;;14.89;64.58;100199.44;5047897;28;20025;-77
2023/12/01 07:59:15;;;;;;;25.98;7.90;;;;;;;14.83;65.03;100183.03;5047948;28;20029;-77
2023/12/01 08:01:41;;;;;;;24.48;10.38;;;;;;;14.82;64.49;100176.75;5046343;28;20108;-77
2023/12/01 08:04:07;;;;;;;25.25;11.68;;;;;;;14.96;64.36;100197.78;5047674;28;20029;-76
2023/12/01 08:06:33;;;;;;;22.33;8.38;;;;;;;14.99;64.76;100189.34;5047677;28;20029;-77
2023/12/01 08:08:58;;;;;;;69.70;12.88;;;;;;;15.05;64.85;100182.41;5047735;28;20036;-77
2023/12/01 08:11:24;;;;;;;32.88;8.65;;;;;;;14.94;64.53;100172.75;5047739;28;20108;-78
2023/12/01 08:13:51;;;;;;;22.83;9.30;;;;;;;15.09;64.22;100195.47;5047992;28;20033;-77
2023/12/01 08:16:16;;;;;;;20.05;8.65;;;;;;;15.05;64.15;100188.69;5047792;28;20060;-77
2023/12/01 08:18:42;;;;;;;24.33;8.63;;;;;;;15.05;63.88;100194.09;5047986;28;20067;-76
2023/12/01 08:21:08;;;;;;;32.58;9.50;;;;;;;15.02;64.10;100190.88;5055138;28;20122;-77
2023/12/01 08:23:34;;;;;;;30.92;9.30;;;;;;;14.97;64.01;100182.41;5057051;28;20025;-77
2023/12/01 08:25:59;;;;;;;31.52;8.85;;;;;;;14.91;64.50;100175.78;5047637;28;20362;-76
2023/12/01 08:28:25;;;;;;;27.52;7.28;;;;;;;14.99;64.19;100188.47;5047676;28;20036;-76
2023/12/01 08:30:50;;;;;;;19.90;8.25;;;;;;;14.90;64.39;100165.94;5047479;28;20037;-76
2023/12/01 08:33:16;;;;;;;25.77;9.55;;;;;;;14.93;64.43;100179.16;5047698;28;20646;-76
2023/12/01 08:35:42;;;;;;;19.90;7.50;;;;;;;14.95;64.52;100176.31;5048120;28;20612;-76
2023/12/01 08:38:10;;;;;;;16.10;7.72;;;;;;;14.94;64.49;100171.88;5051362;28;20021;-77
2023/12/01 08:40:37;;;;;;;22.85;7.75;;;;;;;14.81;64.58;100147.13;5051497;28;20041;-78
2023/12/01 08:43:04;;;;;;;21.90;8.38;;;;;;;15.00;64.85;100172.09;5051563;28;20021;-78
2023/12/01 08:45:31;;;;;;;25.42;9.07;;;;;;;14.99;64.57;100173.09;5051070;28;20029;-77
2023/12/01 08:47:56;;;;;;;25.75;8.73;;;;;;;14.98;64.79;100175.97;5051135;28;20056;-77
2023/12/01 08:50:22;;;;;;;44.28;10.25;;;;;;;14.96;64.80;100168.00;5051033;28;20053;-78
2023/12/01 08:52:48;;;;;;;29.92;9.07;;;;;;;14.98;64.90;100171.38;5051070;28;20471;-76
2023/12/01 08:55:13;;;;;;;16.58;8.20;;;;;;;14.92;64.72;100163.91;5050950;28;20033;-77
2023/12/01 08:57:39;;;;;;;18.42;9.15;;;;;;;15.02;64.96;100174.63;5051119;28;20451;-78
2023/12/01 09:00:06;;;;;;;40.25;10.07;;;;;;;15.08;64.67;100179.38;5050746;28;20466;-78
2023/12/01 09:02:32;;;;;;;13.98;7.50;;;;;;;15.10;64.83;100170.09;5050796;28;20025;-78
2023/12/01 09:04:57;;;;;;;28.45;8.68;;;;;;;15.19;64.56;100169.09;5065082;28;20099;-77
2023/12/01 09:07:23;;;;;;;38.55;8.55;;;;;;;15.23;64.60;100154.19;5051292;28;20025;-77
2023/12/01 09:09:49;;;;;;;44.35;8.55;;;;;;;15.17;64.32;100138.59;5050671;28;20170;-78
2023/12/01 09:12:14;;;;;;;29.02;8.10;;;;;;;15.20;64.26;100116.59;5060008;28;20037;-77
2023/12/01 09:14:41;;;;;;;36.08;7.55;;;;;;;15.46;64.28;100150.84;5056695;28;20110;-77
2023/12/01 09:17:07;;;;;;;25.23;7.60;;;;;;;15.44;63.57;100123.09;5050559;28;20036;-78
2023/12/01 09:19:32;;;;;;;17.73;6.57;;;;;;;15.67;63.45;100143.97;5050583;28;20405;-77
2023/12/01 09:21:58;;;;;;;26.45;7.30;;;;;;;15.77;62.96;100151.94;5047910;28;20044;-77
2023/12/01 09:24:23;;;;;;;14.00;6.18;;;;;;;15.75;62.99;100122.25;5050475;28;20141;-76
2023/12/01 09:26:50;;;;;;;15.77;5.97;;;;;;;16.08;62.75;100144.78;5052036;28;20485;-77
2023/12/01 09:29:15;;;;;;;13.25;6.18;;;;;;;16.21;61.56;100145.09;5052054;28;20476;-76
2023/12/01 09:31:45;;;;;;;16.10;6.63;;;;;;;16.22;61.43;100114.22;5050437;28;20044;-77
2023/12/01 09:34:10;;;;;;;33.78;7.78;;;;;;;16.59;60.99;100148.06;5050156;28;20029;-78
2023/12/01 09:36:36;;;;;;;18.45;7.22;;;;;;;16.69;60.01;100144.16;5050477;28;20105;-77
2023/12/01 09:39:02;;;;;;;23.23;7.95;;;;;;;16.73;59.32;100139.19;5064300;28;21149;-76
2023/12/01 09:41:29;;;;;;;20.63;7.10;;;;;;;16.72;59.42;100121.22;5050761;28;20037;-77
2023/12/01 09:43:55;;;;;;;24.35;7.82;;;;;;;16.79;59.32;100124.91;5050214;28;20096;-80
2023/12/01 09:46:26;;;;;;;26.98;7.47;;;;;;;16.86;58.98;100123.19;5069875;28;20105;-77
2023/12/01 09:48:53;;;;;;;23.65;6.90;;;;;;;16.92;58.62;100132.47;5052370;28;20033;-77
2023/12/01 09:51:19;;;;;;;19.45;7.15;;;;;;;16.95;58.53;100118.53;5052085;28;20029;-78
2023/12/01 09:53:44;;;;;;;36.65;7.78;;;;;;;17.08;58.52;100138.69;5052159;28;20021;-77
2023/12/01 09:56:11;;;;;;;39.60;8.35;;;;;;;17.13;58.68;100127.25;5051503;28;20021;-77
2023/12/01 09:58:37;;;;;;;20.63;6.97;;;;;;;17.21;58.18;100122.66;5051522;28;20032;-77
2023/12/01 10:01:03;;;;;;;42.92;7.75;;;;;;;17.07;58.45;100104.38;5052750;28;20373;-77
2023/12/01 10:03:28;;;;;;;56.83;9.55;;;;;;;17.21;58.67;100116.38;5057868;28;20036;-77
2023/12/01 10:05:58;;;;;;;17.35;7.75;;;;;;;17.34;58.29;100127.47;5059535;28;20029;-77
2023/12/01 10:08:25;;;;;;;26.05;7.28;;;;;;;17.37;57.96;100122.50;5050961;28;20028;-77
2023/12/01 10:10:50;;;;;;;26.65;8.43;;;;;;;17.47;57.94;100116.00;5049612;28;20025;-77
2023/12/01 10:13:16;;;;;;;19.90;8.95;;;;;;;17.49;57.67;100117.50;5049446;28;20540;-77
2023/12/01 10:15:41;;;;;;;85.97;13.40;;;;;;;17.54;57.51;100100.66;5049816;28;20036;-78
2023/12/01 10:18:12;;;;;;;20.90;7.78;;;;;;;17.56;57.40;100104.06;5049301;28;20106;-77
2023/12/01 10:20:41;;;;;;;23.65;6.97;;;;;;;17.56;56.85;100104.91;5047961;28;20455;-78
2023/12/01 10:23:19;;;;;;;26.35;7.55;;;;;;;17.51;56.47;100091.00;5049332;28;20047;-77
2023/12/01 10:25:49;;;;;;;12.52;5.80;;;;;;;17.55;56.41;100088.78;5049426;28;20067;-78
2023/12/01 10:28:18;;;;;;;15.40;6.13;;;;;;;17.57;56.52;100100.31;5047524;28;20063;-78
2023/12/01 10:30:57;;;;;;;17.02;5.60;;;;;;;17.55;56.51;100096.94;5049407;28;20103;-76
2023/12/01 10:33:24;;;;;;;36.60;7.18;;;;;;;17.59;56.56;100084.66;5049199;28;20032;-77
2023/12/01 10:36:07;;;;;;;32.45;7.97;;;;;;;17.50;56.62;100069.41;5048933;28;20021;-77
2023/12/01 10:38:33;;;;;;;40.67;8.35;;;;;;;17.54;56.97;100073.47;5046664;28;20040;-78
2023/12/01 10:41:00;;;;;;;24.05;7.47;;;;;;;17.54;56.80;100073.47;5049014;28;20033;-77
2023/12/01 10:43:27;;;;;;;50.63;9.15;;;;;;;17.42;57.08;100045.88;5049041;28;20570;-77
2023/12/01 10:45:53;;;;;;;27.83;6.90;;;;;;;17.62;56.80;100066.09;5049344;28;20052;-76
2023/12/01 10:48:21;;;;;;;19.30;6.63;;;;;;;17.73;56.84;100062.13;5048998;28;20075;-77
2023/12/01 10:50:48;;;;;;;41.70;8.20;;;;;;;17.75;56.18;100060.03;5048930;28;20037;-77
2023/12/01 10:53:15;;;;;;;28.10;5.82;;;;;;;17.73;55.94;100056.66;5048910;28;20028;-77
2023/12/01 10:55:51;;;;;;;24.15;5.45;;;;;;;17.72;55.82;100066.69;5058319;28;20140;-77
2023/12/01 10:58:24;;;;;;;25.73;5.93;;;;;;;17.80;56.03;100065.75;5054408;28;20083;-77
2023/12/01 11:00:53;;;;;;;14.48;5.35;;;;;;;17.82;55.89;100069.16;5048581;28;20029;-76
2023/12/01 11:03:27;;;;;;;21.23;5.38;;;;;;;17.90;55.87;100069.91;5048515;28;20021;-77
2023/12/01 11:06:01;;;;;;;17.83;6.05;;;;;;;18.02;55.75;100070.31;5048504;28;20021;-77
2023/12/01 11:08:51;;;;;;;27.67;7.50;;;;;;;18.18;55.59;100063.84;5048358;28;20111;-77
2023/12/01 11:11:23;;;;;;;34.05;7.93;;;;;;;18.31;55.25;100062.16;5048427;28;20049;-78